Pagrindinis puslapis
METAR-TAF:

METAR-TAF

Oro uostai :

Saint Catherine, Egiptas

platuma: 28-41-07N, ilguma: 034-03-45E, Aukštis: 1331 m

Dabartinis oras

Ataskaita buvo paskelbta 35 minutes, ne 14:00 UTC
Vėjas 10 kt iš Šiaurės
Temperatūra 27°C
Drėgmė 21%
Slėgis 1020 hPa
Matomumas 10 km arba daugiau
nėra debesų žemiau 1500 m ir nėra kamuolinių lietaus debesų

METAR: HESC 231400Z 35010KT CAVOK 27/03 Q1020 NOSIG

Laikas: 16:35 (14:35 UTC)

Prognozė

Ataskaita buvo paskelbta 3 valandos ir 35 minutes, ne 11:00 UTC
Prognozė galioja nuo 23 metu 12 UTC su 24 metu 18 UTC
Vėjas 13 kt iš Šiaurės Vakarų
Matomumas 10 km arba daugiau
nėra debesų žemiau 1500 m ir nėra kamuolinių lietaus debesų
Tapsmas
nuo 23 metu 21 UTC su 23 metu 23 UTC
Vėjas 4 kt nuo kintamojo kryptimis
Tapsmas
nuo 24 metu 06 UTC su 24 metu 08 UTC
Vėjas 14 kt iš Šiaurės/Šiaurės Vakarų

TAF: HESC 231100Z 2312/2418 32013KT CAVOK BECMG 2321/2323 VRB04KT BECMG 2406/2408 34014KT

Orai ataskaitas ir orų prognozės (METAR, TAF).

turimą stotys yra geltonos ir raudonos taškus žemėlapyje.

Perkelti pele per norėdami pamatyti stoties vardą.

Tada spustelėkite, norėdami matyti oro stebėjimo ir prognozės.

Norėdami pakeisti žemėlapį: spustelėkite ant žalios mygtukų su juodo kryžiaus žemyn,; žalią mygtuką su brūkšneliu, jei norite nutolinti; arba žalių rodyklių gretimoms žemėlapius.


METAR-TAF: